sensor_id;sensor_type;location;lat;lon;timestamp;P1;durP1;ratioP1;P2;durP2;ratioP2
72109;SDS011;59983;52.010;5.420;2023-03-01T00:01:10;18.27;;;16.45;;
72109;SDS011;59983;52.010;5.420;2023-03-01T00:03:38;16.13;;;14.70;;
72109;SDS011;59983;52.010;5.420;2023-03-01T00:06:05;14.88;;;13.43;;
72109;SDS011;59983;52.010;5.420;2023-03-01T00:08:32;17.88;;;16.55;;
72109;SDS011;59983;52.010;5.420;2023-03-01T00:11:12;15.50;;;14.10;;
72109;SDS011;59983;52.010;5.420;2023-03-01T00:13:39;16.25;;;15.05;;
72109;SDS011;59983;52.010;5.420;2023-03-01T00:16:07;15.60;;;14.30;;
72109;SDS011;59983;52.010;5.420;2023-03-01T00:18:35;15.68;;;14.38;;
72109;SDS011;59983;52.010;5.420;2023-03-01T00:21:02;17.17;;;15.65;;
72109;SDS011;59983;52.010;5.420;2023-03-01T00:23:29;15.57;;;14.38;;
72109;SDS011;59983;52.010;5.420;2023-03-01T00:25:55;14.90;;;13.73;;
72109;SDS011;59983;52.010;5.420;2023-03-01T00:28:22;15.17;;;14.00;;
72109;SDS011;59983;52.010;5.420;2023-03-01T00:30:48;17.33;;;15.82;;
72109;SDS011;59983;52.010;5.420;2023-03-01T00:33:16;17.90;;;16.58;;
72109;SDS011;59983;52.010;5.420;2023-03-01T00:35:43;16.33;;;15.15;;
72109;SDS011;59983;52.010;5.420;2023-03-01T00:38:09;17.38;;;16.08;;
72109;SDS011;59983;52.010;5.420;2023-03-01T00:40:36;16.37;;;14.97;;
72109;SDS011;59983;52.010;5.420;2023-03-01T00:43:03;17.55;;;16.05;;
72109;SDS011;59983;52.010;5.420;2023-03-01T00:45:30;18.52;;;17.08;;
72109;SDS011;59983;52.010;5.420;2023-03-01T00:47:57;16.83;;;15.32;;
72109;SDS011;59983;52.010;5.420;2023-03-01T00:50:24;20.23;;;18.17;;
72109;SDS011;59983;52.010;5.420;2023-03-01T00:52:52;17.13;;;15.73;;
72109;SDS011;59983;52.010;5.420;2023-03-01T00:55:20;18.23;;;16.73;;
72109;SDS011;59983;52.010;5.420;2023-03-01T00:57:46;17.88;;;16.55;;
72109;SDS011;59983;52.010;5.420;2023-03-01T01:00:13;16.85;;;15.27;;
72109;SDS011;59983;52.010;5.420;2023-03-01T01:02:40;18.15;;;16.77;;
72109;SDS011;59983;52.010;5.420;2023-03-01T01:05:06;16.47;;;15.10;;
72109;SDS011;59983;52.010;5.420;2023-03-01T01:07:33;16.88;;;15.30;;
72109;SDS011;59983;52.010;5.420;2023-03-01T01:10:00;18.42;;;16.98;;
72109;SDS011;59983;52.010;5.420;2023-03-01T01:12:27;19.90;;;18.15;;
72109;SDS011;59983;52.010;5.420;2023-03-01T01:14:53;19.55;;;17.83;;
72109;SDS011;59983;52.010;5.420;2023-03-01T01:17:20;18.77;;;17.17;;
72109;SDS011;59983;52.010;5.420;2023-03-01T01:19:46;17.23;;;15.70;;
72109;SDS011;59983;52.010;5.420;2023-03-01T01:22:13;18.25;;;16.77;;
72109;SDS011;59983;52.010;5.420;2023-03-01T01:24:39;17.02;;;15.35;;
72109;SDS011;59983;52.010;5.420;2023-03-01T01:27:06;17.95;;;16.35;;
72109;SDS011;59983;52.010;5.420;2023-03-01T01:29:33;18.30;;;16.70;;
72109;SDS011;59983;52.010;5.420;2023-03-01T01:31:59;16.98;;;15.38;;
72109;SDS011;59983;52.010;5.420;2023-03-01T01:34:26;19.60;;;17.83;;
72109;SDS011;59983;52.010;5.420;2023-03-01T01:36:52;18.05;;;16.35;;
72109;SDS011;59983;52.010;5.420;2023-03-01T01:39:20;18.98;;;17.40;;
72109;SDS011;59983;52.010;5.420;2023-03-01T01:41:48;18.27;;;16.67;;
72109;SDS011;59983;52.010;5.420;2023-03-01T01:46:47;18.40;;;16.92;;
72109;SDS011;59983;52.010;5.420;2023-03-01T01:52:10;18.92;;;17.20;;
72109;SDS011;59983;52.010;5.420;2023-03-01T01:54:44;18.43;;;16.63;;
72109;SDS011;59983;52.010;5.420;2023-03-01T01:57:24;18.00;;;16.58;;
72109;SDS011;59983;52.010;5.420;2023-03-01T01:59:56;19.08;;;17.35;;
72109;SDS011;59983;52.010;5.420;2023-03-01T02:02:26;20.17;;;18.30;;
72109;SDS011;59983;52.010;5.420;2023-03-01T02:04:55;18.63;;;17.10;;
72109;SDS011;59983;52.010;5.420;2023-03-01T02:07:36;18.23;;;16.33;;
72109;SDS011;59983;52.010;5.420;2023-03-01T02:10:05;20.10;;;17.98;;
72109;SDS011;59983;52.010;5.420;2023-03-01T02:12:32;19.05;;;17.23;;
72109;SDS011;59983;52.010;5.420;2023-03-01T02:15:00;20.73;;;18.40;;
72109;SDS011;59983;52.010;5.420;2023-03-01T02:17:26;19.88;;;18.08;;
72109;SDS011;59983;52.010;5.420;2023-03-01T02:22:34;18.95;;;17.10;;
72109;SDS011;59983;52.010;5.420;2023-03-01T02:25:05;20.90;;;19.23;;
72109;SDS011;59983;52.010;5.420;2023-03-01T02:27:38;18.52;;;17.00;;
72109;SDS011;59983;52.010;5.420;2023-03-01T02:30:14;20.92;;;19.08;;
72109;SDS011;59983;52.010;5.420;2023-03-01T02:32:41;20.13;;;18.40;;
72109;SDS011;59983;52.010;5.420;2023-03-01T02:35:13;19.02;;;17.30;;
72109;SDS011;59983;52.010;5.420;2023-03-01T02:37:42;20.58;;;18.92;;
72109;SDS011;59983;52.010;5.420;2023-03-01T02:40:18;20.05;;;18.15;;
72109;SDS011;59983;52.010;5.420;2023-03-01T02:42:52;21.25;;;19.20;;
72109;SDS011;59983;52.010;5.420;2023-03-01T02:45:22;20.27;;;18.37;;
72109;SDS011;59983;52.010;5.420;2023-03-01T02:47:49;19.80;;;17.85;;
72109;SDS011;59983;52.010;5.420;2023-03-01T02:50:32;19.65;;;18.00;;
72109;SDS011;59983;52.010;5.420;2023-03-01T02:53:25;19.80;;;18.17;;
72109;SDS011;59983;52.010;5.420;2023-03-01T02:55:57;20.73;;;18.77;;
72109;SDS011;59983;52.010;5.420;2023-03-01T02:58:25;19.83;;;17.90;;
72109;SDS011;59983;52.010;5.420;2023-03-01T03:00:51;18.63;;;16.75;;
72109;SDS011;59983;52.010;5.420;2023-03-01T03:03:19;19.95;;;17.65;;
72109;SDS011;59983;52.010;5.420;2023-03-01T03:05:47;19.90;;;18.13;;
72109;SDS011;59983;52.010;5.420;2023-03-01T03:08:14;19.58;;;17.67;;
72109;SDS011;59983;52.010;5.420;2023-03-01T03:10:50;19.60;;;17.70;;
72109;SDS011;59983;52.010;5.420;2023-03-01T03:13:17;19.63;;;17.73;;
72109;SDS011;59983;52.010;5.420;2023-03-01T03:15:44;20.17;;;18.38;;
72109;SDS011;59983;52.010;5.420;2023-03-01T03:18:13;19.27;;;17.60;;
72109;SDS011;59983;52.010;5.420;2023-03-01T03:20:42;19.80;;;17.92;;
72109;SDS011;59983;52.010;5.420;2023-03-01T03:23:09;18.30;;;16.57;;
72109;SDS011;59983;52.010;5.420;2023-03-01T03:25:36;20.05;;;18.35;;
72109;SDS011;59983;52.010;5.420;2023-03-01T03:28:04;20.15;;;18.27;;
72109;SDS011;59983;52.010;5.420;2023-03-01T03:30:37;19.42;;;17.55;;
72109;SDS011;59983;52.010;5.420;2023-03-01T03:33:05;20.50;;;18.75;;
72109;SDS011;59983;52.010;5.420;2023-03-01T03:35:33;18.50;;;16.87;;
72109;SDS011;59983;52.010;5.420;2023-03-01T03:38:05;19.63;;;18.13;;
72109;SDS011;59983;52.010;5.420;2023-03-01T03:40:36;20.30;;;18.45;;
72109;SDS011;59983;52.010;5.420;2023-03-01T03:43:05;18.70;;;17.10;;
72109;SDS011;59983;52.010;5.420;2023-03-01T03:45:43;20.98;;;18.98;;
72109;SDS011;59983;52.010;5.420;2023-03-01T03:48:10;19.90;;;18.20;;
72109;SDS011;59983;52.010;5.420;2023-03-01T03:50:38;18.58;;;16.98;;
72109;SDS011;59983;52.010;5.420;2023-03-01T03:53:07;18.88;;;17.35;;
72109;SDS011;59983;52.010;5.420;2023-03-01T03:55:36;17.20;;;15.77;;
72109;SDS011;59983;52.010;5.420;2023-03-01T03:58:06;18.55;;;17.00;;
72109;SDS011;59983;52.010;5.420;2023-03-01T04:00:35;15.93;;;14.67;;
72109;SDS011;59983;52.010;5.420;2023-03-01T04:03:03;18.20;;;16.77;;
72109;SDS011;59983;52.010;5.420;2023-03-01T04:05:30;18.95;;;17.00;;
72109;SDS011;59983;52.010;5.420;2023-03-01T04:07:57;17.90;;;16.60;;
72109;SDS011;59983;52.010;5.420;2023-03-01T04:10:34;16.25;;;14.73;;
72109;SDS011;59983;52.010;5.420;2023-03-01T04:13:04;16.77;;;15.23;;
72109;SDS011;59983;52.010;5.420;2023-03-01T04:15:33;18.10;;;16.60;;
72109;SDS011;59983;52.010;5.420;2023-03-01T04:18:00;17.35;;;16.05;;
72109;SDS011;59983;52.010;5.420;2023-03-01T04:20:28;15.52;;;14.32;;
72109;SDS011;59983;52.010;5.420;2023-03-01T04:22:57;17.92;;;16.33;;
72109;SDS011;59983;52.010;5.420;2023-03-01T04:25:37;16.37;;;15.13;;
72109;SDS011;59983;52.010;5.420;2023-03-01T04:28:09;16.65;;;15.27;;
72109;SDS011;59983;52.010;5.420;2023-03-01T04:30:36;17.27;;;16.05;;
72109;SDS011;59983;52.010;5.420;2023-03-01T04:33:08;16.33;;;14.65;;
72109;SDS011;59983;52.010;5.420;2023-03-01T04:35:36;17.88;;;16.48;;
72109;SDS011;59983;52.010;5.420;2023-03-01T04:38:03;17.40;;;15.90;;
72109;SDS011;59983;52.010;5.420;2023-03-01T04:40:31;17.00;;;15.70;;
72109;SDS011;59983;52.010;5.420;2023-03-01T04:42:58;17.38;;;15.25;;
72109;SDS011;59983;52.010;5.420;2023-03-01T04:45:25;15.77;;;14.55;;
72109;SDS011;59983;52.010;5.420;2023-03-01T04:47:51;19.13;;;17.55;;
72109;SDS011;59983;52.010;5.420;2023-03-01T04:50:20;18.33;;;16.87;;
72109;SDS011;59983;52.010;5.420;2023-03-01T04:52:48;16.08;;;14.98;;
72109;SDS011;59983;52.010;5.420;2023-03-01T04:55:14;18.35;;;16.60;;
72109;SDS011;59983;52.010;5.420;2023-03-01T04:57:41;16.00;;;14.70;;
72109;SDS011;59983;52.010;5.420;2023-03-01T05:00:09;17.65;;;16.42;;
72109;SDS011;59983;52.010;5.420;2023-03-01T05:02:47;16.00;;;14.90;;
72109;SDS011;59983;52.010;5.420;2023-03-01T05:05:14;17.35;;;16.08;;
72109;SDS011;59983;52.010;5.420;2023-03-01T05:07:41;17.63;;;16.02;;
72109;SDS011;59983;52.010;5.420;2023-03-01T05:10:08;16.65;;;15.18;;
72109;SDS011;59983;52.010;5.420;2023-03-01T05:12:34;19.48;;;17.88;;
72109;SDS011;59983;52.010;5.420;2023-03-01T05:15:03;19.30;;;17.07;;
72109;SDS011;59983;52.010;5.420;2023-03-01T05:17:33;16.10;;;14.70;;
72109;SDS011;59983;52.010;5.420;2023-03-01T05:20:00;16.95;;;15.45;;
72109;SDS011;59983;52.010;5.420;2023-03-01T05:22:27;17.10;;;15.80;;
72109;SDS011;59983;52.010;5.420;2023-03-01T05:24:53;16.27;;;15.18;;
72109;SDS011;59983;52.010;5.420;2023-03-01T05:27:21;20.13;;;18.37;;
72109;SDS011;59983;52.010;5.420;2023-03-01T05:29:48;17.10;;;15.60;;
72109;SDS011;59983;52.010;5.420;2023-03-01T05:32:14;19.60;;;17.90;;
72109;SDS011;59983;52.010;5.420;2023-03-01T05:34:42;18.15;;;16.40;;
72109;SDS011;59983;52.010;5.420;2023-03-01T05:37:08;17.75;;;16.17;;
72109;SDS011;59983;52.010;5.420;2023-03-01T05:39:35;17.70;;;16.13;;
72109;SDS011;59983;52.010;5.420;2023-03-01T05:42:02;17.98;;;16.35;;
72109;SDS011;59983;52.010;5.420;2023-03-01T05:44:29;17.65;;;16.25;;
72109;SDS011;59983;52.010;5.420;2023-03-01T05:46:56;18.40;;;17.08;;
72109;SDS011;59983;52.010;5.420;2023-03-01T05:49:23;18.52;;;17.08;;
72109;SDS011;59983;52.010;5.420;2023-03-01T05:51:51;17.83;;;16.43;;
72109;SDS011;59983;52.010;5.420;2023-03-01T05:54:20;18.90;;;17.25;;
72109;SDS011;59983;52.010;5.420;2023-03-01T05:56:47;19.10;;;17.50;;
72109;SDS011;59983;52.010;5.420;2023-03-01T05:59:14;16.55;;;14.98;;
72109;SDS011;59983;52.010;5.420;2023-03-01T06:01:42;18.27;;;16.77;;
72109;SDS011;59983;52.010;5.420;2023-03-01T06:04:09;17.67;;;16.07;;
72109;SDS011;59983;52.010;5.420;2023-03-01T06:06:36;17.00;;;15.50;;
72109;SDS011;59983;52.010;5.420;2023-03-01T06:09:04;17.98;;;16.42;;
72109;SDS011;59983;52.010;5.420;2023-03-01T06:11:33;18.67;;;17.05;;
72109;SDS011;59983;52.010;5.420;2023-03-01T06:14:01;17.63;;;16.25;;
72109;SDS011;59983;52.010;5.420;2023-03-01T06:16:28;19.17;;;17.77;;
72109;SDS011;59983;52.010;5.420;2023-03-01T06:18:55;17.20;;;15.82;;
72109;SDS011;59983;52.010;5.420;2023-03-01T06:21:21;18.38;;;16.83;;
72109;SDS011;59983;52.010;5.420;2023-03-01T06:23:48;16.55;;;15.23;;
72109;SDS011;59983;52.010;5.420;2023-03-01T06:26:14;18.73;;;17.30;;
72109;SDS011;59983;52.010;5.420;2023-03-01T06:28:41;17.77;;;16.07;;
72109;SDS011;59983;52.010;5.420;2023-03-01T06:31:07;17.33;;;15.90;;
72109;SDS011;59983;52.010;5.420;2023-03-01T06:33:35;17.77;;;16.38;;
72109;SDS011;59983;52.010;5.420;2023-03-01T06:36:02;18.23;;;16.58;;
72109;SDS011;59983;52.010;5.420;2023-03-01T06:38:29;19.35;;;17.70;;
72109;SDS011;59983;52.010;5.420;2023-03-01T06:40:55;17.90;;;16.43;;
72109;SDS011;59983;52.010;5.420;2023-03-01T06:43:23;17.65;;;15.95;;
72109;SDS011;59983;52.010;5.420;2023-03-01T06:45:50;16.90;;;15.50;;
72109;SDS011;59983;52.010;5.420;2023-03-01T06:48:17;18.92;;;17.25;;
72109;SDS011;59983;52.010;5.420;2023-03-01T06:50:43;19.35;;;17.60;;
72109;SDS011;59983;52.010;5.420;2023-03-01T06:53:10;18.97;;;17.37;;
72109;SDS011;59983;52.010;5.420;2023-03-01T06:55:36;17.65;;;16.05;;
72109;SDS011;59983;52.010;5.420;2023-03-01T06:58:03;18.83;;;17.17;;
72109;SDS011;59983;52.010;5.420;2023-03-01T07:00:30;17.70;;;15.95;;
72109;SDS011;59983;52.010;5.420;2023-03-01T07:03:00;18.58;;;16.88;;
72109;SDS011;59983;52.010;5.420;2023-03-01T07:05:29;15.93;;;14.70;;
72109;SDS011;59983;52.010;5.420;2023-03-01T07:07:56;18.05;;;16.35;;
72109;SDS011;59983;52.010;5.420;2023-03-01T07:10:22;19.23;;;17.63;;
72109;SDS011;59983;52.010;5.420;2023-03-01T07:12:49;18.15;;;16.55;;
72109;SDS011;59983;52.010;5.420;2023-03-01T07:15:16;18.70;;;16.98;;
72109;SDS011;59983;52.010;5.420;2023-03-01T07:17:42;18.53;;;16.87;;
72109;SDS011;59983;52.010;5.420;2023-03-01T07:20:10;18.02;;;16.42;;
72109;SDS011;59983;52.010;5.420;2023-03-01T07:22:39;17.38;;;16.02;;
72109;SDS011;59983;52.010;5.420;2023-03-01T07:25:06;18.10;;;16.40;;
72109;SDS011;59983;52.010;5.420;2023-03-01T07:27:33;18.73;;;17.30;;
72109;SDS011;59983;52.010;5.420;2023-03-01T07:29:59;17.83;;;16.23;;
72109;SDS011;59983;52.010;5.420;2023-03-01T07:32:26;21.23;;;17.13;;
72109;SDS011;59983;52.010;5.420;2023-03-01T07:34:52;18.65;;;16.83;;
72109;SDS011;59983;52.010;5.420;2023-03-01T07:37:19;16.35;;;14.85;;
72109;SDS011;59983;52.010;5.420;2023-03-01T07:39:45;18.63;;;16.73;;
72109;SDS011;59983;52.010;5.420;2023-03-01T07:42:12;20.80;;;18.27;;
72109;SDS011;59983;52.010;5.420;2023-03-01T07:44:38;20.23;;;18.08;;
72109;SDS011;59983;52.010;5.420;2023-03-01T07:47:05;21.15;;;19.10;;
72109;SDS011;59983;52.010;5.420;2023-03-01T07:49:31;20.38;;;16.05;;
72109;SDS011;59983;52.010;5.420;2023-03-01T07:51:58;19.10;;;17.45;;
72109;SDS011;59983;52.010;5.420;2023-03-01T07:54:24;18.90;;;17.40;;
72109;SDS011;59983;52.010;5.420;2023-03-01T07:56:52;17.73;;;15.63;;
72109;SDS011;59983;52.010;5.420;2023-03-01T07:59:20;18.70;;;16.98;;
72109;SDS011;59983;52.010;5.420;2023-03-01T08:01:47;15.75;;;14.55;;
72109;SDS011;59983;52.010;5.420;2023-03-01T08:04:13;17.23;;;15.80;;
72109;SDS011;59983;52.010;5.420;2023-03-01T08:06:40;17.03;;;15.53;;
72109;SDS011;59983;52.010;5.420;2023-03-01T08:09:06;16.27;;;14.88;;
72109;SDS011;59983;52.010;5.420;2023-03-01T08:11:34;17.45;;;15.75;;
72109;SDS011;59983;52.010;5.420;2023-03-01T08:14:00;17.15;;;15.80;;
72109;SDS011;59983;52.010;5.420;2023-03-01T08:16:27;17.02;;;15.48;;
72109;SDS011;59983;52.010;5.420;2023-03-01T08:18:54;16.13;;;14.63;;
72109;SDS011;59983;52.010;5.420;2023-03-01T08:21:22;16.48;;;14.70;;
72109;SDS011;59983;52.010;5.420;2023-03-01T08:23:49;19.05;;;16.02;;
72109;SDS011;59983;52.010;5.420;2023-03-01T08:26:17;16.70;;;15.30;;
72109;SDS011;59983;52.010;5.420;2023-03-01T08:28:45;19.45;;;16.00;;
72109;SDS011;59983;52.010;5.420;2023-03-01T08:31:17;17.13;;;13.67;;
72109;SDS011;59983;52.010;5.420;2023-03-01T08:33:54;16.48;;;15.15;;
72109;SDS011;59983;52.010;5.420;2023-03-01T08:36:32;16.63;;;15.05;;
72109;SDS011;59983;52.010;5.420;2023-03-01T08:39:03;15.13;;;13.70;;
72109;SDS011;59983;52.010;5.420;2023-03-01T08:41:30;15.65;;;14.10;;
72109;SDS011;59983;52.010;5.420;2023-03-01T08:43:57;14.50;;;13.13;;
72109;SDS011;59983;52.010;5.420;2023-03-01T08:46:27;14.25;;;13.02;;
72109;SDS011;59983;52.010;5.420;2023-03-01T08:48:55;14.55;;;13.35;;
72109;SDS011;59983;52.010;5.420;2023-03-01T08:51:22;13.85;;;12.52;;
72109;SDS011;59983;52.010;5.420;2023-03-01T08:53:49;14.55;;;13.25;;
72109;SDS011;59983;52.010;5.420;2023-03-01T08:56:16;16.87;;;13.03;;
72109;SDS011;59983;52.010;5.420;2023-03-01T08:58:45;15.52;;;14.20;;
72109;SDS011;59983;52.010;5.420;2023-03-01T09:01:13;16.13;;;14.88;;
72109;SDS011;59983;52.010;5.420;2023-03-01T09:03:44;14.57;;;13.40;;
72109;SDS011;59983;52.010;5.420;2023-03-01T09:06:11;14.55;;;13.13;;
72109;SDS011;59983;52.010;5.420;2023-03-01T09:08:41;26.73;;;16.57;;
72109;SDS011;59983;52.010;5.420;2023-03-01T09:11:09;28.73;;;18.30;;
72109;SDS011;59983;52.010;5.420;2023-03-01T09:13:37;16.63;;;14.93;;
72109;SDS011;59983;52.010;5.420;2023-03-01T09:16:04;13.15;;;12.02;;
72109;SDS011;59983;52.010;5.420;2023-03-01T09:18:32;14.07;;;12.88;;
72109;SDS011;59983;52.010;5.420;2023-03-01T09:21:04;12.53;;;11.63;;
72109;SDS011;59983;52.010;5.420;2023-03-01T09:23:40;12.20;;;11.27;;
72109;SDS011;59983;52.010;5.420;2023-03-01T09:26:13;16.77;;;15.20;;
72109;SDS011;59983;52.010;5.420;2023-03-01T09:28:42;16.27;;;14.63;;
72109;SDS011;59983;52.010;5.420;2023-03-01T09:31:10;16.25;;;14.65;;
72109;SDS011;59983;52.010;5.420;2023-03-01T09:33:41;17.20;;;14.33;;
72109;SDS011;59983;52.010;5.420;2023-03-01T09:36:10;29.45;;;21.58;;
72109;SDS011;59983;52.010;5.420;2023-03-01T09:38:38;21.83;;;17.67;;
72109;SDS011;59983;52.010;5.420;2023-03-01T09:43:44;12.43;;;11.02;;
72109;SDS011;59983;52.010;5.420;2023-03-01T09:46:22;10.87;;;9.97;;
72109;SDS011;59983;52.010;5.420;2023-03-01T09:48:54;11.98;;;11.07;;
72109;SDS011;59983;52.010;5.420;2023-03-01T09:51:30;12.48;;;11.40;;
72109;SDS011;59983;52.010;5.420;2023-03-01T09:54:00;11.68;;;10.48;;
72109;SDS011;59983;52.010;5.420;2023-03-01T10:01:52;11.32;;;9.80;;
72109;SDS011;59983;52.010;5.420;2023-03-01T10:07:05;9.95;;;9.15;;
72109;SDS011;59983;52.010;5.420;2023-03-01T10:09:33;9.48;;;8.88;;
72109;SDS011;59983;52.010;5.420;2023-03-01T10:12:02;8.97;;;8.47;;
72109;SDS011;59983;52.010;5.420;2023-03-01T10:17:36;9.50;;;8.90;;
72109;SDS011;59983;52.010;5.420;2023-03-01T10:22:50;8.57;;;7.90;;
72109;SDS011;59983;52.010;5.420;2023-03-01T10:30:54;9.35;;;8.75;;
72109;SDS011;59983;52.010;5.420;2023-03-01T10:33:22;8.25;;;7.72;;
72109;SDS011;59983;52.010;5.420;2023-03-01T10:35:51;9.25;;;8.65;;
72109;SDS011;59983;52.010;5.420;2023-03-01T10:38:18;8.53;;;7.97;;
72109;SDS011;59983;52.010;5.420;2023-03-01T10:40:52;8.93;;;8.25;;
72109;SDS011;59983;52.010;5.420;2023-03-01T10:43:19;8.70;;;8.10;;
72109;SDS011;59983;52.010;5.420;2023-03-01T10:45:47;8.77;;;8.27;;
72109;SDS011;59983;52.010;5.420;2023-03-01T10:48:15;9.55;;;8.77;;
72109;SDS011;59983;52.010;5.420;2023-03-01T10:50:48;8.40;;;7.90;;
72109;SDS011;59983;52.010;5.420;2023-03-01T10:53:19;8.75;;;8.00;;
72109;SDS011;59983;52.010;5.420;2023-03-01T10:55:47;8.23;;;7.57;;
72109;SDS011;59983;52.010;5.420;2023-03-01T10:58:22;8.02;;;7.43;;
72109;SDS011;59983;52.010;5.420;2023-03-01T11:00:59;8.38;;;7.82;;
72109;SDS011;59983;52.010;5.420;2023-03-01T11:03:28;8.47;;;7.77;;
72109;SDS011;59983;52.010;5.420;2023-03-01T11:06:02;8.63;;;8.05;;
72109;SDS011;59983;52.010;5.420;2023-03-01T11:08:29;8.88;;;8.27;;
72109;SDS011;59983;52.010;5.420;2023-03-01T11:11:05;8.05;;;7.28;;
72109;SDS011;59983;52.010;5.420;2023-03-01T11:13:54;8.57;;;7.97;;
72109;SDS011;59983;52.010;5.420;2023-03-01T11:16:42;8.83;;;8.23;;
72109;SDS011;59983;52.010;5.420;2023-03-01T11:21:42;8.38;;;7.80;;
72109;SDS011;59983;52.010;5.420;2023-03-01T11:24:18;7.00;;;6.50;;
72109;SDS011;59983;52.010;5.420;2023-03-01T11:26:47;8.18;;;7.47;;
72109;SDS011;59983;52.010;5.420;2023-03-01T11:29:26;7.70;;;7.13;;
72109;SDS011;59983;52.010;5.420;2023-03-01T11:32:17;7.70;;;7.10;;
72109;SDS011;59983;52.010;5.420;2023-03-01T11:34:53;8.45;;;7.82;;
72109;SDS011;59983;52.010;5.420;2023-03-01T11:40:33;9.10;;;8.27;;
72109;SDS011;59983;52.010;5.420;2023-03-01T11:45:41;7.95;;;7.05;;
72109;SDS011;59983;52.010;5.420;2023-03-01T11:48:38;7.55;;;7.15;;
72109;SDS011;59983;52.010;5.420;2023-03-01T11:51:27;7.75;;;7.10;;
72109;SDS011;59983;52.010;5.420;2023-03-01T12:00:14;7.82;;;7.03;;
72109;SDS011;59983;52.010;5.420;2023-03-01T12:08:15;8.27;;;7.78;;
72109;SDS011;59983;52.010;5.420;2023-03-01T12:13:46;8.65;;;7.95;;
72109;SDS011;59983;52.010;5.420;2023-03-01T12:16:22;9.05;;;8.35;;
72109;SDS011;59983;52.010;5.420;2023-03-01T12:30:49;8.38;;;7.75;;
72109;SDS011;59983;52.010;5.420;2023-03-01T12:44:03;7.70;;;7.25;;
72109;SDS011;59983;52.010;5.420;2023-03-01T12:46:59;7.43;;;6.93;;
72109;SDS011;59983;52.010;5.420;2023-03-01T12:49:44;7.82;;;7.32;;
72109;SDS011;59983;52.010;5.420;2023-03-01T12:52:35;8.00;;;7.30;;
72109;SDS011;59983;52.010;5.420;2023-03-01T12:55:08;7.15;;;6.65;;
72109;SDS011;59983;52.010;5.420;2023-03-01T13:00:37;7.60;;;7.07;;
72109;SDS011;59983;52.010;5.420;2023-03-01T13:06:17;6.77;;;6.37;;
72109;SDS011;59983;52.010;5.420;2023-03-01T13:08:57;7.63;;;6.97;;
72109;SDS011;59983;52.010;5.420;2023-03-01T13:11:35;13.27;;;11.45;;
72109;SDS011;59983;52.010;5.420;2023-03-01T13:14:46;9.73;;;9.02;;
72109;SDS011;59983;52.010;5.420;2023-03-01T13:16:54;25.45;;;17.02;;
72109;SDS011;59983;52.010;5.420;2023-03-01T13:19:21;11.63;;;10.63;;
72109;SDS011;59983;52.010;5.420;2023-03-01T13:21:53;10.93;;;9.88;;
72109;SDS011;59983;52.010;5.420;2023-03-01T13:29:46;10.05;;;9.05;;
72109;SDS011;59983;52.010;5.420;2023-03-01T13:32:24;11.87;;;10.67;;
72109;SDS011;59983;52.010;5.420;2023-03-01T13:37:40;18.67;;;14.93;;
72109;SDS011;59983;52.010;5.420;2023-03-01T13:42:45;7.75;;;7.15;;
72109;SDS011;59983;52.010;5.420;2023-03-01T13:45:36;9.03;;;8.33;;
72109;SDS011;59983;52.010;5.420;2023-03-01T13:48:10;7.55;;;7.00;;
72109;SDS011;59983;52.010;5.420;2023-03-01T13:50:45;8.27;;;7.55;;
72109;SDS011;59983;52.010;5.420;2023-03-01T13:53:21;7.85;;;7.10;;
72109;SDS011;59983;52.010;5.420;2023-03-01T13:55:51;6.63;;;6.22;;
72109;SDS011;59983;52.010;5.420;2023-03-01T13:58:32;6.57;;;6.07;;
72109;SDS011;59983;52.010;5.420;2023-03-01T14:01:22;6.43;;;6.03;;
72109;SDS011;59983;52.010;5.420;2023-03-01T14:04:20;7.18;;;6.57;;
72109;SDS011;59983;52.010;5.420;2023-03-01T14:07:17;6.05;;;5.50;;
72109;SDS011;59983;52.010;5.420;2023-03-01T14:09:51;6.10;;;5.60;;
72109;SDS011;59983;52.010;5.420;2023-03-01T14:17:59;5.80;;;5.38;;
72109;SDS011;59983;52.010;5.420;2023-03-01T14:20:30;6.28;;;5.38;;
72109;SDS011;59983;52.010;5.420;2023-03-01T14:23:02;5.63;;;5.13;;
72109;SDS011;59983;52.010;5.420;2023-03-01T14:25:37;6.80;;;6.03;;
72109;SDS011;59983;52.010;5.420;2023-03-01T14:28:21;4.20;;;3.80;;
72109;SDS011;59983;52.010;5.420;2023-03-01T14:30:53;4.60;;;4.20;;
72109;SDS011;59983;52.010;5.420;2023-03-01T14:33:34;4.90;;;4.15;;
72109;SDS011;59983;52.010;5.420;2023-03-01T14:36:03;4.25;;;3.95;;
72109;SDS011;59983;52.010;5.420;2023-03-01T14:41:09;4.30;;;3.95;;
72109;SDS011;59983;52.010;5.420;2023-03-01T14:43:41;6.60;;;4.05;;
72109;SDS011;59983;52.010;5.420;2023-03-01T14:46:20;3.88;;;3.45;;
72109;SDS011;59983;52.010;5.420;2023-03-01T14:48:51;3.97;;;3.67;;
72109;SDS011;59983;52.010;5.420;2023-03-01T14:51:20;4.70;;;3.77;;
72109;SDS011;59983;52.010;5.420;2023-03-01T14:53:47;3.60;;;3.30;;
72109;SDS011;59983;52.010;5.420;2023-03-01T14:56:16;3.85;;;3.55;;
72109;SDS011;59983;52.010;5.420;2023-03-01T14:58:43;19.77;;;12.77;;
72109;SDS011;59983;52.010;5.420;2023-03-01T15:01:12;15.70;;;11.13;;
72109;SDS011;59983;52.010;5.420;2023-03-01T15:03:45;7.60;;;6.83;;
72109;SDS011;59983;52.010;5.420;2023-03-01T15:06:14;6.07;;;5.45;;
72109;SDS011;59983;52.010;5.420;2023-03-01T15:08:46;7.45;;;5.75;;
72109;SDS011;59983;52.010;5.420;2023-03-01T15:11:29;5.72;;;4.35;;
72109;SDS011;59983;52.010;5.420;2023-03-01T15:13:57;4.88;;;3.70;;
72109;SDS011;59983;52.010;5.420;2023-03-01T15:16:32;4.50;;;4.20;;
72109;SDS011;59983;52.010;5.420;2023-03-01T15:19:01;4.72;;;4.40;;
72109;SDS011;59983;52.010;5.420;2023-03-01T15:21:34;4.35;;;3.88;;
72109;SDS011;59983;52.010;5.420;2023-03-01T15:24:07;4.28;;;3.97;;
72109;SDS011;59983;52.010;5.420;2023-03-01T15:29:24;14.77;;;13.23;;
72109;SDS011;59983;52.010;5.420;2023-03-01T15:32:00;6.40;;;5.80;;
72109;SDS011;59983;52.010;5.420;2023-03-01T15:34:35;6.07;;;5.38;;
72109;SDS011;59983;52.010;5.420;2023-03-01T15:37:04;5.70;;;5.10;;
72109;SDS011;59983;52.010;5.420;2023-03-01T15:39:36;4.53;;;4.13;;
72109;SDS011;59983;52.010;5.420;2023-03-01T15:42:11;5.27;;;4.77;;
72109;SDS011;59983;52.010;5.420;2023-03-01T15:47:48;5.28;;;3.70;;
72109;SDS011;59983;52.010;5.420;2023-03-01T15:50:24;4.47;;;3.80;;
72109;SDS011;59983;52.010;5.420;2023-03-01T15:52:55;3.95;;;3.58;;
72109;SDS011;59983;52.010;5.420;2023-03-01T15:55:25;4.23;;;3.93;;
72109;SDS011;59983;52.010;5.420;2023-03-01T15:57:57;6.57;;;4.30;;
72109;SDS011;59983;52.010;5.420;2023-03-01T16:00:26;5.15;;;4.43;;
72109;SDS011;59983;52.010;5.420;2023-03-01T16:02:54;4.22;;;3.72;;
72109;SDS011;59983;52.010;5.420;2023-03-01T16:05:24;5.22;;;4.72;;
72109;SDS011;59983;52.010;5.420;2023-03-01T16:07:53;6.27;;;4.33;;
72109;SDS011;59983;52.010;5.420;2023-03-01T16:10:20;4.40;;;3.95;;
72109;SDS011;59983;52.010;5.420;2023-03-01T16:12:47;4.30;;;4.00;;
72109;SDS011;59983;52.010;5.420;2023-03-01T16:15:16;4.55;;;4.25;;
72109;SDS011;59983;52.010;5.420;2023-03-01T16:17:45;5.00;;;4.70;;
72109;SDS011;59983;52.010;5.420;2023-03-01T16:20:12;4.50;;;4.20;;
72109;SDS011;59983;52.010;5.420;2023-03-01T16:22:53;4.18;;;3.78;;
72109;SDS011;59983;52.010;5.420;2023-03-01T16:25:20;4.43;;;3.90;;
72109;SDS011;59983;52.010;5.420;2023-03-01T16:27:48;4.30;;;4.00;;
72109;SDS011;59983;52.010;5.420;2023-03-01T16:30:17;7.45;;;6.28;;
72109;SDS011;59983;52.010;5.420;2023-03-01T16:32:46;6.03;;;5.23;;